Airfield :
LOGIN :

Register | Disclaimer

   EN    FR    IT 

 










Legend :    VFR   Marginal VFR   IFR   Intensive IFR   Very Intensive IFR
Visi :
Ceiling :
>= 8 km
>= 3000ft
5 to 8 km
1000 to 3000 ft
1500m to 5 km
500 to 1000 ft
800 to 1500m
200 to 500 ft
< 800m
< 200 ft
Symbols :   Thunderstorms  Fog  Heavy snow  Heavy precipitations  Wind > 20 kt
SIGMETs :     Misc.  Thunderstorms  Icing  Turbulence  Mountain Waves  Volcanic Ashes






- Airport Elevation : 876 ft
- IATA code : MBX


LJMB - Maribor

CURRENT METAR :
  • 200230Z AUTO 34004KT 9999 NSC M01/M02 Q1039

EXPIRED METARs :
  • 200200Z AUTO 34002KT 9999 NSC M02/M03 Q1039
  • 200130Z AUTO 34004KT 9999 NSC M02/M03 Q1039
  • 200100Z AUTO 32002KT 9999 R32/1900N NSC M03/M04 Q1039
  • 200030Z AUTO 00000KT 9999 FEW051/// M02/M03 Q1038
  • 200000Z AUTO VRB01KT 9999 SCT052/// SCT190/// M02/M03 Q1038

TAF TAF LJMB
Valid from the 20 at 03:00 until the 21 at 03:00 UTC


200200Z 2003/2103 36005KT CAVOK
BECMG 2003/2004 BKN050
PROB40
TEMPO 2003/2012 7000 -SN OVC030
TEMPO 2016/2024 BKN020



MET'MAP, your aeronautical weather chart ! - Copyright ORBIFLY December 2007 - Disclaimer

ORBIFLY MET'MAP TEAM :

Programming & Development : Alexandra Zaïnal
Concept & original design : Baudouin d'Aumeries
Assistance for programming : Marc-Olivier Méhu
Technical & hardware support : Manuel Goepfert

Contact : metmap@orbifly.com




SOURCES & CREDITS :

   NOAA